sensor_id;sensor_type;location;lat;lon;timestamp;P1;durP1;ratioP1;P2;durP2;ratioP2
6463;SDS011;3265;42.694;23.282;2023-10-31T00:00:31;16.10;;;9.10;;
6463;SDS011;3265;42.694;23.282;2023-10-31T00:02:58;18.30;;;9.77;;
6463;SDS011;3265;42.694;23.282;2023-10-31T00:05:24;14.20;;;8.33;;
6463;SDS011;3265;42.694;23.282;2023-10-31T00:07:51;15.97;;;8.77;;
6463;SDS011;3265;42.694;23.282;2023-10-31T00:10:18;13.83;;;8.43;;
6463;SDS011;3265;42.694;23.282;2023-10-31T00:12:45;16.90;;;8.70;;
6463;SDS011;3265;42.694;23.282;2023-10-31T00:15:14;16.47;;;8.40;;
6463;SDS011;3265;42.694;23.282;2023-10-31T00:17:41;15.20;;;8.17;;
6463;SDS011;3265;42.694;23.282;2023-10-31T00:20:08;16.23;;;8.40;;
6463;SDS011;3265;42.694;23.282;2023-10-31T00:22:36;20.70;;;8.73;;
6463;SDS011;3265;42.694;23.282;2023-10-31T00:25:03;14.43;;;9.43;;
6463;SDS011;3265;42.694;23.282;2023-10-31T00:27:31;16.40;;;9.97;;
6463;SDS011;3265;42.694;23.282;2023-10-31T00:29:57;18.53;;;9.80;;
6463;SDS011;3265;42.694;23.282;2023-10-31T00:32:26;17.23;;;8.63;;
6463;SDS011;3265;42.694;23.282;2023-10-31T00:34:52;19.50;;;9.93;;
6463;SDS011;3265;42.694;23.282;2023-10-31T00:37:19;12.50;;;8.90;;
6463;SDS011;3265;42.694;23.282;2023-10-31T00:39:46;15.43;;;9.13;;
6463;SDS011;3265;42.694;23.282;2023-10-31T00:42:13;17.97;;;9.37;;
6463;SDS011;3265;42.694;23.282;2023-10-31T00:44:40;17.63;;;10.00;;
6463;SDS011;3265;42.694;23.282;2023-10-31T00:47:07;17.20;;;8.43;;
6463;SDS011;3265;42.694;23.282;2023-10-31T00:49:35;17.17;;;9.00;;
6463;SDS011;3265;42.694;23.282;2023-10-31T00:52:02;16.83;;;8.87;;
6463;SDS011;3265;42.694;23.282;2023-10-31T00:54:29;16.80;;;9.37;;
6463;SDS011;3265;42.694;23.282;2023-10-31T00:56:56;18.97;;;9.33;;
6463;SDS011;3265;42.694;23.282;2023-10-31T00:59:23;13.27;;;8.00;;
6463;SDS011;3265;42.694;23.282;2023-10-31T01:01:50;16.27;;;8.80;;
6463;SDS011;3265;42.694;23.282;2023-10-31T01:04:17;18.57;;;9.87;;
6463;SDS011;3265;42.694;23.282;2023-10-31T01:06:45;16.97;;;9.87;;
6463;SDS011;3265;42.694;23.282;2023-10-31T01:09:12;13.77;;;8.10;;
6463;SDS011;3265;42.694;23.282;2023-10-31T01:11:39;16.30;;;10.50;;
6463;SDS011;3265;42.694;23.282;2023-10-31T01:14:05;21.60;;;11.67;;
6463;SDS011;3265;42.694;23.282;2023-10-31T01:16:32;19.10;;;9.43;;
6463;SDS011;3265;42.694;23.282;2023-10-31T01:18:59;13.47;;;8.57;;
6463;SDS011;3265;42.694;23.282;2023-10-31T01:21:26;13.93;;;8.77;;
6463;SDS011;3265;42.694;23.282;2023-10-31T01:23:54;16.60;;;8.93;;
6463;SDS011;3265;42.694;23.282;2023-10-31T01:26:21;14.60;;;8.70;;
6463;SDS011;3265;42.694;23.282;2023-10-31T01:28:48;14.63;;;7.33;;
6463;SDS011;3265;42.694;23.282;2023-10-31T01:31:14;13.27;;;7.03;;
6463;SDS011;3265;42.694;23.282;2023-10-31T01:33:41;15.77;;;7.77;;
6463;SDS011;3265;42.694;23.282;2023-10-31T01:36:08;11.13;;;7.50;;
6463;SDS011;3265;42.694;23.282;2023-10-31T01:38:37;12.83;;;6.60;;
6463;SDS011;3265;42.694;23.282;2023-10-31T01:41:05;23.30;;;7.70;;
6463;SDS011;3265;42.694;23.282;2023-10-31T01:43:32;12.47;;;6.13;;
6463;SDS011;3265;42.694;23.282;2023-10-31T01:46:01;14.77;;;6.93;;
6463;SDS011;3265;42.694;23.282;2023-10-31T01:48:29;20.47;;;9.17;;
6463;SDS011;3265;42.694;23.282;2023-10-31T01:50:57;12.50;;;8.53;;
6463;SDS011;3265;42.694;23.282;2023-10-31T01:53:25;14.37;;;6.93;;
6463;SDS011;3265;42.694;23.282;2023-10-31T01:55:54;21.40;;;9.97;;
6463;SDS011;3265;42.694;23.282;2023-10-31T01:58:25;9.13;;;6.10;;
6463;SDS011;3265;42.694;23.282;2023-10-31T02:00:55;12.13;;;6.87;;
6463;SDS011;3265;42.694;23.282;2023-10-31T02:03:22;18.37;;;9.07;;
6463;SDS011;3265;42.694;23.282;2023-10-31T02:05:48;15.50;;;8.83;;
6463;SDS011;3265;42.694;23.282;2023-10-31T02:08:17;18.87;;;10.23;;
6463;SDS011;3265;42.694;23.282;2023-10-31T02:10:44;22.03;;;9.10;;
6463;SDS011;3265;42.694;23.282;2023-10-31T02:13:11;19.83;;;10.23;;
6463;SDS011;3265;42.694;23.282;2023-10-31T02:15:40;14.07;;;9.17;;
6463;SDS011;3265;42.694;23.282;2023-10-31T02:18:07;23.83;;;10.03;;
6463;SDS011;3265;42.694;23.282;2023-10-31T02:20:34;23.10;;;10.13;;
6463;SDS011;3265;42.694;23.282;2023-10-31T02:23:03;18.00;;;9.47;;
6463;SDS011;3265;42.694;23.282;2023-10-31T02:25:31;15.70;;;9.57;;
6463;SDS011;3265;42.694;23.282;2023-10-31T02:27:58;17.33;;;9.20;;
6463;SDS011;3265;42.694;23.282;2023-10-31T02:30:25;15.30;;;8.90;;
6463;SDS011;3265;42.694;23.282;2023-10-31T02:32:53;14.30;;;8.87;;
6463;SDS011;3265;42.694;23.282;2023-10-31T02:35:20;13.70;;;8.87;;
6463;SDS011;3265;42.694;23.282;2023-10-31T02:37:47;21.10;;;9.60;;
6463;SDS011;3265;42.694;23.282;2023-10-31T02:40:16;12.27;;;8.30;;
6463;SDS011;3265;42.694;23.282;2023-10-31T02:42:42;17.07;;;8.70;;
6463;SDS011;3265;42.694;23.282;2023-10-31T02:45:10;13.57;;;8.80;;
6463;SDS011;3265;42.694;23.282;2023-10-31T02:47:37;16.80;;;9.13;;
6463;SDS011;3265;42.694;23.282;2023-10-31T02:50:04;19.30;;;11.90;;
6463;SDS011;3265;42.694;23.282;2023-10-31T02:52:31;21.87;;;14.47;;
6463;SDS011;3265;42.694;23.282;2023-10-31T02:54:58;21.33;;;12.17;;
6463;SDS011;3265;42.694;23.282;2023-10-31T02:57:26;21.33;;;12.20;;
6463;SDS011;3265;42.694;23.282;2023-10-31T02:59:53;20.93;;;11.80;;
6463;SDS011;3265;42.694;23.282;2023-10-31T03:02:20;22.67;;;12.40;;
6463;SDS011;3265;42.694;23.282;2023-10-31T03:04:47;25.17;;;12.80;;
6463;SDS011;3265;42.694;23.282;2023-10-31T03:07:14;20.50;;;11.90;;
6463;SDS011;3265;42.694;23.282;2023-10-31T03:09:41;20.27;;;12.03;;
6463;SDS011;3265;42.694;23.282;2023-10-31T03:12:07;23.17;;;13.13;;
6463;SDS011;3265;42.694;23.282;2023-10-31T03:14:36;23.47;;;13.20;;
6463;SDS011;3265;42.694;23.282;2023-10-31T03:17:03;23.80;;;13.83;;
6463;SDS011;3265;42.694;23.282;2023-10-31T03:19:30;25.30;;;13.37;;
6463;SDS011;3265;42.694;23.282;2023-10-31T03:21:57;19.87;;;12.70;;
6463;SDS011;3265;42.694;23.282;2023-10-31T03:24:23;31.63;;;13.63;;
6463;SDS011;3265;42.694;23.282;2023-10-31T03:26:50;20.50;;;12.47;;
6463;SDS011;3265;42.694;23.282;2023-10-31T03:29:17;22.83;;;13.00;;
6463;SDS011;3265;42.694;23.282;2023-10-31T03:31:45;22.03;;;12.13;;
6463;SDS011;3265;42.694;23.282;2023-10-31T03:34:12;21.80;;;11.63;;
6463;SDS011;3265;42.694;23.282;2023-10-31T03:36:39;23.53;;;11.93;;
6463;SDS011;3265;42.694;23.282;2023-10-31T03:39:06;22.97;;;11.80;;
6463;SDS011;3265;42.694;23.282;2023-10-31T03:41:33;19.63;;;10.97;;
6463;SDS011;3265;42.694;23.282;2023-10-31T03:44:00;19.63;;;11.17;;
6463;SDS011;3265;42.694;23.282;2023-10-31T03:46:26;20.10;;;11.33;;
6463;SDS011;3265;42.694;23.282;2023-10-31T03:48:54;20.03;;;10.63;;
6463;SDS011;3265;42.694;23.282;2023-10-31T03:51:21;23.17;;;10.00;;
6463;SDS011;3265;42.694;23.282;2023-10-31T03:53:48;22.67;;;10.10;;
6463;SDS011;3265;42.694;23.282;2023-10-31T03:56:18;20.97;;;10.53;;
6463;SDS011;3265;42.694;23.282;2023-10-31T03:58:44;24.20;;;9.77;;
6463;SDS011;3265;42.694;23.282;2023-10-31T04:01:11;18.30;;;10.80;;
6463;SDS011;3265;42.694;23.282;2023-10-31T04:03:38;20.57;;;10.97;;
6463;SDS011;3265;42.694;23.282;2023-10-31T04:06:06;19.40;;;11.03;;
6463;SDS011;3265;42.694;23.282;2023-10-31T04:08:33;22.37;;;10.73;;
6463;SDS011;3265;42.694;23.282;2023-10-31T04:11:00;22.93;;;11.70;;
6463;SDS011;3265;42.694;23.282;2023-10-31T04:13:29;23.73;;;13.53;;
6463;SDS011;3265;42.694;23.282;2023-10-31T04:15:56;26.47;;;12.47;;
6463;SDS011;3265;42.694;23.282;2023-10-31T04:18:23;21.87;;;13.43;;
6463;SDS011;3265;42.694;23.282;2023-10-31T04:20:49;28.37;;;14.67;;
6463;SDS011;3265;42.694;23.282;2023-10-31T04:23:18;22.17;;;12.27;;
6463;SDS011;3265;42.694;23.282;2023-10-31T04:25:44;24.07;;;12.70;;
6463;SDS011;3265;42.694;23.282;2023-10-31T04:28:11;24.00;;;13.20;;
6463;SDS011;3265;42.694;23.282;2023-10-31T04:30:40;25.70;;;11.57;;
6463;SDS011;3265;42.694;23.282;2023-10-31T04:33:06;25.07;;;11.97;;
6463;SDS011;3265;42.694;23.282;2023-10-31T04:35:33;28.40;;;14.23;;
6463;SDS011;3265;42.694;23.282;2023-10-31T04:38:00;30.43;;;14.90;;
6463;SDS011;3265;42.694;23.282;2023-10-31T04:40:31;33.63;;;16.63;;
6463;SDS011;3265;42.694;23.282;2023-10-31T04:42:58;32.10;;;19.10;;
6463;SDS011;3265;42.694;23.282;2023-10-31T04:45:26;30.00;;;16.93;;
6463;SDS011;3265;42.694;23.282;2023-10-31T04:47:53;31.70;;;16.17;;
6463;SDS011;3265;42.694;23.282;2023-10-31T04:50:20;36.37;;;19.73;;
6463;SDS011;3265;42.694;23.282;2023-10-31T04:52:47;57.50;;;25.13;;
6463;SDS011;3265;42.694;23.282;2023-10-31T04:55:13;48.83;;;28.07;;
6463;SDS011;3265;42.694;23.282;2023-10-31T04:57:42;50.33;;;28.03;;
6463;SDS011;3265;42.694;23.282;2023-10-31T05:00:09;48.50;;;27.93;;
6463;SDS011;3265;42.694;23.282;2023-10-31T05:02:37;57.20;;;32.47;;
6463;SDS011;3265;42.694;23.282;2023-10-31T05:05:04;64.97;;;36.20;;
6463;SDS011;3265;42.694;23.282;2023-10-31T05:07:31;65.93;;;36.40;;
6463;SDS011;3265;42.694;23.282;2023-10-31T05:09:58;63.90;;;35.33;;
6463;SDS011;3265;42.694;23.282;2023-10-31T05:12:25;58.77;;;35.70;;
6463;SDS011;3265;42.694;23.282;2023-10-31T05:14:54;62.23;;;34.67;;
6463;SDS011;3265;42.694;23.282;2023-10-31T05:17:20;58.67;;;32.67;;
6463;SDS011;3265;42.694;23.282;2023-10-31T05:19:47;46.37;;;22.77;;
6463;SDS011;3265;42.694;23.282;2023-10-31T05:22:15;41.13;;;23.37;;
6463;SDS011;3265;42.694;23.282;2023-10-31T05:24:42;43.20;;;21.13;;
6463;SDS011;3265;42.694;23.282;2023-10-31T05:27:09;41.40;;;24.23;;
6463;SDS011;3265;42.694;23.282;2023-10-31T05:29:35;44.43;;;25.37;;
6463;SDS011;3265;42.694;23.282;2023-10-31T05:32:06;41.20;;;22.57;;
6463;SDS011;3265;42.694;23.282;2023-10-31T05:34:33;50.03;;;24.43;;
6463;SDS011;3265;42.694;23.282;2023-10-31T05:36:59;42.30;;;25.00;;
6463;SDS011;3265;42.694;23.282;2023-10-31T05:39:26;47.87;;;23.93;;
6463;SDS011;3265;42.694;23.282;2023-10-31T05:41:53;43.00;;;23.93;;
6463;SDS011;3265;42.694;23.282;2023-10-31T05:44:20;50.07;;;25.20;;
6463;SDS011;3265;42.694;23.282;2023-10-31T05:46:46;41.03;;;24.27;;
6463;SDS011;3265;42.694;23.282;2023-10-31T05:49:15;40.97;;;23.03;;
6463;SDS011;3265;42.694;23.282;2023-10-31T05:51:42;36.30;;;22.07;;
6463;SDS011;3265;42.694;23.282;2023-10-31T05:54:09;41.00;;;21.43;;
6463;SDS011;3265;42.694;23.282;2023-10-31T05:56:36;48.70;;;22.47;;
6463;SDS011;3265;42.694;23.282;2023-10-31T05:59:02;43.50;;;24.23;;
6463;SDS011;3265;42.694;23.282;2023-10-31T06:01:29;40.27;;;24.23;;
6463;SDS011;3265;42.694;23.282;2023-10-31T06:03:56;48.97;;;24.20;;
6463;SDS011;3265;42.694;23.282;2023-10-31T06:06:24;49.07;;;25.03;;
6463;SDS011;3265;42.694;23.282;2023-10-31T06:08:51;40.40;;;22.67;;
6463;SDS011;3265;42.694;23.282;2023-10-31T06:11:18;37.97;;;18.80;;
6463;SDS011;3265;42.694;23.282;2023-10-31T06:13:45;24.50;;;13.97;;
6463;SDS011;3265;42.694;23.282;2023-10-31T06:16:13;32.27;;;15.20;;
6463;SDS011;3265;42.694;23.282;2023-10-31T06:18:39;30.63;;;14.43;;
6463;SDS011;3265;42.694;23.282;2023-10-31T06:21:06;24.97;;;14.13;;
6463;SDS011;3265;42.694;23.282;2023-10-31T06:23:36;24.40;;;12.07;;
6463;SDS011;3265;42.694;23.282;2023-10-31T06:26:03;25.23;;;12.30;;
6463;SDS011;3265;42.694;23.282;2023-10-31T06:28:30;23.57;;;12.63;;
6463;SDS011;3265;42.694;23.282;2023-10-31T06:30:59;22.53;;;12.67;;
6463;SDS011;3265;42.694;23.282;2023-10-31T06:33:26;18.83;;;12.27;;
6463;SDS011;3265;42.694;23.282;2023-10-31T06:35:53;26.40;;;11.60;;
6463;SDS011;3265;42.694;23.282;2023-10-31T06:38:20;26.57;;;12.53;;
6463;SDS011;3265;42.694;23.282;2023-10-31T06:40:48;19.83;;;12.10;;
6463;SDS011;3265;42.694;23.282;2023-10-31T06:43:15;24.60;;;12.20;;
6463;SDS011;3265;42.694;23.282;2023-10-31T06:45:42;22.33;;;12.50;;
6463;SDS011;3265;42.694;23.282;2023-10-31T06:48:09;25.13;;;13.13;;
6463;SDS011;3265;42.694;23.282;2023-10-31T06:50:36;19.90;;;12.47;;
6463;SDS011;3265;42.694;23.282;2023-10-31T06:53:02;24.83;;;12.30;;
6463;SDS011;3265;42.694;23.282;2023-10-31T06:55:28;26.47;;;12.93;;
6463;SDS011;3265;42.694;23.282;2023-10-31T06:57:56;29.40;;;12.37;;
6463;SDS011;3265;42.694;23.282;2023-10-31T07:00:23;22.97;;;11.87;;
6463;SDS011;3265;42.694;23.282;2023-10-31T07:02:50;23.33;;;12.00;;
6463;SDS011;3265;42.694;23.282;2023-10-31T07:05:18;19.57;;;13.03;;
6463;SDS011;3265;42.694;23.282;2023-10-31T07:07:45;24.70;;;12.83;;
6463;SDS011;3265;42.694;23.282;2023-10-31T07:10:12;23.03;;;12.50;;
6463;SDS011;3265;42.694;23.282;2023-10-31T07:12:39;23.37;;;12.40;;
6463;SDS011;3265;42.694;23.282;2023-10-31T07:15:08;24.43;;;13.03;;
6463;SDS011;3265;42.694;23.282;2023-10-31T07:17:35;24.67;;;13.33;;
6463;SDS011;3265;42.694;23.282;2023-10-31T07:20:03;25.60;;;13.33;;
6463;SDS011;3265;42.694;23.282;2023-10-31T07:22:30;23.13;;;12.03;;
6463;SDS011;3265;42.694;23.282;2023-10-31T07:24:59;20.93;;;12.10;;
6463;SDS011;3265;42.694;23.282;2023-10-31T07:27:28;26.27;;;12.53;;
6463;SDS011;3265;42.694;23.282;2023-10-31T07:29:55;22.67;;;13.03;;
6463;SDS011;3265;42.694;23.282;2023-10-31T07:32:23;24.77;;;13.00;;
6463;SDS011;3265;42.694;23.282;2023-10-31T07:34:50;25.17;;;12.00;;
6463;SDS011;3265;42.694;23.282;2023-10-31T07:37:17;19.50;;;12.17;;
6463;SDS011;3265;42.694;23.282;2023-10-31T07:39:44;23.43;;;12.93;;
6463;SDS011;3265;42.694;23.282;2023-10-31T07:42:11;21.83;;;12.83;;
6463;SDS011;3265;42.694;23.282;2023-10-31T07:44:38;32.47;;;12.40;;
6463;SDS011;3265;42.694;23.282;2023-10-31T07:47:05;27.67;;;13.23;;
6463;SDS011;3265;42.694;23.282;2023-10-31T07:49:33;24.57;;;13.07;;
6463;SDS011;3265;42.694;23.282;2023-10-31T07:52:00;29.57;;;14.57;;
6463;SDS011;3265;42.694;23.282;2023-10-31T07:54:27;27.83;;;13.93;;
6463;SDS011;3265;42.694;23.282;2023-10-31T07:56:53;30.93;;;14.87;;
6463;SDS011;3265;42.694;23.282;2023-10-31T07:59:20;28.47;;;14.80;;
6463;SDS011;3265;42.694;23.282;2023-10-31T08:01:47;29.20;;;15.73;;
6463;SDS011;3265;42.694;23.282;2023-10-31T08:04:15;24.23;;;13.87;;
6463;SDS011;3265;42.694;23.282;2023-10-31T08:06:44;29.30;;;15.13;;
6463;SDS011;3265;42.694;23.282;2023-10-31T08:09:10;32.63;;;14.13;;
6463;SDS011;3265;42.694;23.282;2023-10-31T08:11:37;25.20;;;13.00;;
6463;SDS011;3265;42.694;23.282;2023-10-31T08:14:04;29.00;;;13.27;;
6463;SDS011;3265;42.694;23.282;2023-10-31T08:16:31;27.43;;;12.43;;
6463;SDS011;3265;42.694;23.282;2023-10-31T08:18:58;23.33;;;12.63;;
6463;SDS011;3265;42.694;23.282;2023-10-31T08:21:24;24.80;;;12.53;;
6463;SDS011;3265;42.694;23.282;2023-10-31T08:23:54;20.77;;;11.50;;
6463;SDS011;3265;42.694;23.282;2023-10-31T08:26:21;18.50;;;11.03;;
6463;SDS011;3265;42.694;23.282;2023-10-31T08:28:48;25.10;;;11.23;;
6463;SDS011;3265;42.694;23.282;2023-10-31T08:31:16;23.70;;;11.53;;
6463;SDS011;3265;42.694;23.282;2023-10-31T08:33:43;27.57;;;12.03;;
6463;SDS011;3265;42.694;23.282;2023-10-31T08:36:10;16.47;;;10.03;;
6463;SDS011;3265;42.694;23.282;2023-10-31T08:38:37;27.80;;;9.97;;
6463;SDS011;3265;42.694;23.282;2023-10-31T08:41:05;17.60;;;9.57;;
6463;SDS011;3265;42.694;23.282;2023-10-31T08:43:32;17.10;;;10.30;;
6463;SDS011;3265;42.694;23.282;2023-10-31T08:45:59;20.83;;;10.97;;
6463;SDS011;3265;42.694;23.282;2023-10-31T08:48:25;22.47;;;11.20;;
6463;SDS011;3265;42.694;23.282;2023-10-31T08:50:52;24.93;;;11.37;;
6463;SDS011;3265;42.694;23.282;2023-10-31T08:53:19;25.20;;;10.87;;
6463;SDS011;3265;42.694;23.282;2023-10-31T08:55:46;18.97;;;9.60;;
6463;SDS011;3265;42.694;23.282;2023-10-31T08:58:14;18.53;;;9.30;;
6463;SDS011;3265;42.694;23.282;2023-10-31T09:00:43;18.60;;;9.43;;
6463;SDS011;3265;42.694;23.282;2023-10-31T09:03:10;18.77;;;9.43;;
6463;SDS011;3265;42.694;23.282;2023-10-31T09:05:36;21.00;;;8.97;;
6463;SDS011;3265;42.694;23.282;2023-10-31T09:08:03;23.20;;;8.20;;
6463;SDS011;3265;42.694;23.282;2023-10-31T09:10:31;21.23;;;9.07;;
6463;SDS011;3265;42.694;23.282;2023-10-31T09:12:58;14.55;;;8.00;;
6463;SDS011;3265;42.694;23.282;2023-10-31T09:15:26;14.68;;;8.20;;
6463;SDS011;3265;42.694;23.282;2023-10-31T09:17:53;20.08;;;8.50;;
6463;SDS011;3265;42.694;23.282;2023-10-31T09:20:20;15.45;;;7.68;;
6463;SDS011;3265;42.694;23.282;2023-10-31T09:22:49;18.70;;;8.30;;
6463;SDS011;3265;42.694;23.282;2023-10-31T09:25:16;13.70;;;7.80;;
6463;SDS011;3265;42.694;23.282;2023-10-31T09:27:43;14.90;;;7.43;;
6463;SDS011;3265;42.694;23.282;2023-10-31T09:30:13;20.23;;;7.95;;
6463;SDS011;3265;42.694;23.282;2023-10-31T09:32:41;19.63;;;8.00;;
6463;SDS011;3265;42.694;23.282;2023-10-31T09:35:08;17.23;;;7.80;;
6463;SDS011;3265;42.694;23.282;2023-10-31T09:37:35;16.15;;;7.95;;
6463;SDS011;3265;42.694;23.282;2023-10-31T09:40:03;16.17;;;7.93;;
6463;SDS011;3265;42.694;23.282;2023-10-31T09:42:31;17.23;;;7.90;;
6463;SDS011;3265;42.694;23.282;2023-10-31T09:44:58;16.77;;;7.28;;
6463;SDS011;3265;42.694;23.282;2023-10-31T09:47:25;13.60;;;7.43;;
6463;SDS011;3265;42.694;23.282;2023-10-31T09:49:53;13.63;;;6.78;;
6463;SDS011;3265;42.694;23.282;2023-10-31T09:52:20;19.35;;;7.70;;
6463;SDS011;3265;42.694;23.282;2023-10-31T09:54:47;13.93;;;7.85;;
6463;SDS011;3265;42.694;23.282;2023-10-31T09:57:15;18.48;;;7.05;;
6463;SDS011;3265;42.694;23.282;2023-10-31T09:59:43;17.67;;;7.22;;
6463;SDS011;3265;42.694;23.282;2023-10-31T10:02:10;14.30;;;6.15;;
6463;SDS011;3265;42.694;23.282;2023-10-31T10:04:37;12.07;;;6.47;;
6463;SDS011;3265;42.694;23.282;2023-10-31T10:07:05;17.30;;;7.03;;
6463;SDS011;3265;42.694;23.282;2023-10-31T10:09:32;14.75;;;6.65;;
6463;SDS011;3265;42.694;23.282;2023-10-31T10:12:05;17.52;;;6.60;;
6463;SDS011;3265;42.694;23.282;2023-10-31T10:14:32;17.92;;;6.57;;
6463;SDS011;3265;42.694;23.282;2023-10-31T10:16:59;16.10;;;6.60;;
6463;SDS011;3265;42.694;23.282;2023-10-31T10:19:26;14.10;;;6.72;;
6463;SDS011;3265;42.694;23.282;2023-10-31T10:21:54;17.25;;;6.43;;
6463;SDS011;3265;42.694;23.282;2023-10-31T10:24:24;15.77;;;6.97;;
6463;SDS011;3265;42.694;23.282;2023-10-31T10:26:51;12.55;;;6.45;;
6463;SDS011;3265;42.694;23.282;2023-10-31T10:29:18;15.63;;;6.28;;
6463;SDS011;3265;42.694;23.282;2023-10-31T10:31:45;15.52;;;6.80;;
6463;SDS011;3265;42.694;23.282;2023-10-31T10:34:13;17.48;;;6.72;;
6463;SDS011;3265;42.694;23.282;2023-10-31T10:36:41;13.23;;;5.55;;
6463;SDS011;3265;42.694;23.282;2023-10-31T10:39:14;15.20;;;6.38;;
6463;SDS011;3265;42.694;23.282;2023-10-31T10:41:46;12.52;;;6.60;;
6463;SDS011;3265;42.694;23.282;2023-10-31T10:44:20;18.38;;;6.90;;
6463;SDS011;3265;42.694;23.282;2023-10-31T10:46:54;20.88;;;6.50;;
6463;SDS011;3265;42.694;23.282;2023-10-31T10:49:22;18.50;;;6.75;;
6463;SDS011;3265;42.694;23.282;2023-10-31T10:51:52;19.38;;;7.40;;
6463;SDS011;3265;42.694;23.282;2023-10-31T10:54:24;18.65;;;7.25;;
6463;SDS011;3265;42.694;23.282;2023-10-31T10:56:58;20.60;;;7.10;;
6463;SDS011;3265;42.694;23.282;2023-10-31T10:59:30;13.95;;;6.13;;
6463;SDS011;3265;42.694;23.282;2023-10-31T11:02:05;16.90;;;5.80;;
6463;SDS011;3265;42.694;23.282;2023-10-31T11:04:32;12.88;;;5.75;;
6463;SDS011;3265;42.694;23.282;2023-10-31T11:07:01;14.18;;;5.78;;
6463;SDS011;3265;42.694;23.282;2023-10-31T11:09:29;14.23;;;5.55;;
6463;SDS011;3265;42.694;23.282;2023-10-31T11:11:58;12.63;;;5.78;;
6463;SDS011;3265;42.694;23.282;2023-10-31T11:14:26;15.70;;;6.15;;
6463;SDS011;3265;42.694;23.282;2023-10-31T11:16:54;13.07;;;6.28;;
6463;SDS011;3265;42.694;23.282;2023-10-31T11:19:24;10.32;;;4.93;;
6463;SDS011;3265;42.694;23.282;2023-10-31T11:21:53;16.40;;;5.05;;
6463;SDS011;3265;42.694;23.282;2023-10-31T11:24:21;10.23;;;4.30;;
6463;SDS011;3265;42.694;23.282;2023-10-31T11:26:52;11.13;;;4.38;;
6463;SDS011;3265;42.694;23.282;2023-10-31T11:29:21;10.52;;;4.80;;
6463;SDS011;3265;42.694;23.282;2023-10-31T11:31:47;10.15;;;5.07;;
6463;SDS011;3265;42.694;23.282;2023-10-31T11:34:15;9.82;;;4.30;;
6463;SDS011;3265;42.694;23.282;2023-10-31T11:36:44;12.85;;;4.72;;
6463;SDS011;3265;42.694;23.282;2023-10-31T11:39:13;9.02;;;4.28;;
6463;SDS011;3265;42.694;23.282;2023-10-31T11:41:40;11.68;;;4.15;;
6463;SDS011;3265;42.694;23.282;2023-10-31T11:44:14;11.10;;;3.88;;
6463;SDS011;3265;42.694;23.282;2023-10-31T11:46:43;10.13;;;4.13;;
6463;SDS011;3265;42.694;23.282;2023-10-31T11:49:13;15.38;;;4.85;;
6463;SDS011;3265;42.694;23.282;2023-10-31T11:51:40;10.45;;;4.38;;
6463;SDS011;3265;42.694;23.282;2023-10-31T11:54:10;16.40;;;4.57;;
6463;SDS011;3265;42.694;23.282;2023-10-31T11:56:39;10.70;;;4.35;;
6463;SDS011;3265;42.694;23.282;2023-10-31T11:59:06;7.30;;;4.20;;
6463;SDS011;3265;42.694;23.282;2023-10-31T12:01:33;11.88;;;4.28;;
6463;SDS011;3265;42.694;23.282;2023-10-31T12:04:01;11.60;;;4.38;;
6463;SDS011;3265;42.694;23.282;2023-10-31T12:06:29;14.32;;;4.60;;
6463;SDS011;3265;42.694;23.282;2023-10-31T12:08:58;15.88;;;4.50;;
6463;SDS011;3265;42.694;23.282;2023-10-31T12:11:26;12.45;;;4.35;;
6463;SDS011;3265;42.694;23.282;2023-10-31T12:13:54;11.88;;;4.47;;
6463;SDS011;3265;42.694;23.282;2023-10-31T12:16:23;16.80;;;4.35;;
6463;SDS011;3265;42.694;23.282;2023-10-31T12:18:54;14.95;;;5.13;;
6463;SDS011;3265;42.694;23.282;2023-10-31T12:21:35;17.48;;;4.72;;
6463;SDS011;3265;42.694;23.282;2023-10-31T12:24:03;9.80;;;4.03;;
6463;SDS011;3265;42.694;23.282;2023-10-31T12:26:31;9.80;;;4.20;;
6463;SDS011;3265;42.694;23.282;2023-10-31T12:29:09;9.32;;;4.05;;
6463;SDS011;3265;42.694;23.282;2023-10-31T12:31:40;13.07;;;4.93;;
6463;SDS011;3265;42.694;23.282;2023-10-31T12:34:10;10.60;;;4.10;;
6463;SDS011;3265;42.694;23.282;2023-10-31T12:36:39;9.70;;;4.03;;
6463;SDS011;3265;42.694;23.282;2023-10-31T12:39:07;15.32;;;4.50;;
6463;SDS011;3265;42.694;23.282;2023-10-31T12:41:37;12.77;;;3.80;;
6463;SDS011;3265;42.694;23.282;2023-10-31T12:44:05;8.48;;;3.80;;
6463;SDS011;3265;42.694;23.282;2023-10-31T12:46:33;10.55;;;4.00;;
6463;SDS011;3265;42.694;23.282;2023-10-31T12:49:01;14.52;;;4.63;;
6463;SDS011;3265;42.694;23.282;2023-10-31T12:51:28;12.32;;;4.05;;
6463;SDS011;3265;42.694;23.282;2023-10-31T12:53:56;6.22;;;4.30;;
6463;SDS011;3265;42.694;23.282;2023-10-31T12:59:26;16.33;;;4.45;;
6463;SDS011;3265;42.694;23.282;2023-10-31T13:01:53;12.77;;;4.22;;
6463;SDS011;3265;42.694;23.282;2023-10-31T13:04:25;16.17;;;4.45;;
6463;SDS011;3265;42.694;23.282;2023-10-31T13:06:56;12.45;;;4.05;;
6463;SDS011;3265;42.694;23.282;2023-10-31T13:12:15;10.63;;;4.47;;
6463;SDS011;3265;42.694;23.282;2023-10-31T13:14:51;12.43;;;6.07;;
6463;SDS011;3265;42.694;23.282;2023-10-31T13:17:18;11.15;;;4.88;;
6463;SDS011;3265;42.694;23.282;2023-10-31T13:19:45;9.60;;;5.07;;
6463;SDS011;3265;42.694;23.282;2023-10-31T13:22:16;9.38;;;4.97;;
6463;SDS011;3265;42.694;23.282;2023-10-31T13:24:44;15.93;;;4.40;;
6463;SDS011;3265;42.694;23.282;2023-10-31T13:27:11;14.52;;;4.43;;
6463;SDS011;3265;42.694;23.282;2023-10-31T13:29:41;15.00;;;4.97;;
6463;SDS011;3265;42.694;23.282;2023-10-31T13:32:08;15.45;;;4.70;;
6463;SDS011;3265;42.694;23.282;2023-10-31T13:34:35;16.83;;;5.32;;
6463;SDS011;3265;42.694;23.282;2023-10-31T13:37:02;13.88;;;5.13;;
6463;SDS011;3265;42.694;23.282;2023-10-31T13:39:28;14.10;;;4.28;;
6463;SDS011;3265;42.694;23.282;2023-10-31T13:41:57;16.17;;;4.65;;
6463;SDS011;3265;42.694;23.282;2023-10-31T13:44:23;13.00;;;4.15;;
6463;SDS011;3265;42.694;23.282;2023-10-31T13:46:50;14.25;;;4.70;;
6463;SDS011;3265;42.694;23.282;2023-10-31T13:49:17;16.77;;;4.68;;
6463;SDS011;3265;42.694;23.282;2023-10-31T13:51:45;14.63;;;4.18;;
6463;SDS011;3265;42.694;23.282;2023-10-31T13:54:14;13.95;;;4.47;;
6463;SDS011;3265;42.694;23.282;2023-10-31T13:56:40;16.92;;;4.30;;
6463;SDS011;3265;42.694;23.282;2023-10-31T13:59:08;13.48;;;4.65;;
6463;SDS011;3265;42.694;23.282;2023-10-31T14:01:35;18.88;;;4.90;;
6463;SDS011;3265;42.694;23.282;2023-10-31T14:04:02;15.00;;;4.80;;
6463;SDS011;3265;42.694;23.282;2023-10-31T14:06:29;8.15;;;4.32;;
6463;SDS011;3265;42.694;23.282;2023-10-31T14:09:07;16.02;;;4.25;;
6463;SDS011;3265;42.694;23.282;2023-10-31T14:11:35;11.35;;;4.75;;
6463;SDS011;3265;42.694;23.282;2023-10-31T14:14:04;16.63;;;4.90;;
6463;SDS011;3265;42.694;23.282;2023-10-31T14:16:35;11.55;;;4.88;;
6463;SDS011;3265;42.694;23.282;2023-10-31T14:19:03;15.48;;;5.15;;
6463;SDS011;3265;42.694;23.282;2023-10-31T14:21:32;18.13;;;5.85;;
6463;SDS011;3265;42.694;23.282;2023-10-31T14:23:59;13.95;;;5.30;;
6463;SDS011;3265;42.694;23.282;2023-10-31T14:26:26;13.23;;;5.00;;
6463;SDS011;3265;42.694;23.282;2023-10-31T14:28:53;15.32;;;6.05;;
6463;SDS011;3265;42.694;23.282;2023-10-31T14:31:20;18.40;;;5.88;;
6463;SDS011;3265;42.694;23.282;2023-10-31T14:33:48;17.05;;;5.43;;
6463;SDS011;3265;42.694;23.282;2023-10-31T14:36:15;24.40;;;6.32;;
6463;SDS011;3265;42.694;23.282;2023-10-31T14:38:42;20.38;;;5.80;;
6463;SDS011;3265;42.694;23.282;2023-10-31T14:41:09;17.23;;;6.00;;
6463;SDS011;3265;42.694;23.282;2023-10-31T14:43:36;18.83;;;5.95;;
6463;SDS011;3265;42.694;23.282;2023-10-31T14:46:03;15.30;;;6.07;;
6463;SDS011;3265;42.694;23.282;2023-10-31T14:48:32;22.38;;;6.25;;
6463;SDS011;3265;42.694;23.282;2023-10-31T14:51:00;25.08;;;7.18;;